createdAt,value
2023-04-30T00:01:44.652Z,6.88
2023-04-30T00:03:46.916Z,6.55
2023-04-30T00:05:52.033Z,7.05
2023-04-30T00:07:54.237Z,6.53
2023-04-30T00:09:56.851Z,6.95
2023-04-30T00:14:01.207Z,8.85
2023-04-30T00:16:03.425Z,7.88
2023-04-30T00:18:07.141Z,7.13
2023-04-30T00:20:09.532Z,8.60
2023-04-30T00:22:11.685Z,8.18
2023-04-30T00:24:13.861Z,7.93
2023-04-30T00:26:16.228Z,7.47
2023-04-30T00:28:18.420Z,8.45
2023-04-30T00:30:20.726Z,7.70
2023-04-30T00:32:23.116Z,9.30
2023-04-30T00:34:25.613Z,6.78
2023-04-30T00:36:27.905Z,8.40
2023-04-30T00:38:30.236Z,8.20
2023-04-30T00:40:34.606Z,7.53
2023-04-30T00:42:36.772Z,6.78
2023-04-30T00:44:38.958Z,8.02
2023-04-30T00:46:41.356Z,7.07
2023-04-30T00:48:43.527Z,6.78
2023-04-30T00:50:46.029Z,7.32
2023-04-30T00:52:48.344Z,6.90
2023-04-30T00:54:50.684Z,7.43
2023-04-30T00:56:52.950Z,9.90
2023-04-30T00:58:57.248Z,8.77
2023-04-30T01:00:59.554Z,7.30
2023-04-30T01:03:02.193Z,6.80
2023-04-30T01:07:06.530Z,8.93
2023-04-30T01:09:08.725Z,6.90
2023-04-30T01:11:13.944Z,7.63
2023-04-30T01:13:23.932Z,10.65
2023-04-30T01:15:31.949Z,7.35
2023-04-30T01:17:39.918Z,7.30
2023-04-30T01:19:43.299Z,9.10
2023-04-30T01:21:45.732Z,6.97
2023-04-30T01:24:06.417Z,6.85
2023-04-30T01:26:28.885Z,8.02
2023-04-30T01:28:31.780Z,7.07
2023-04-30T01:30:34.623Z,6.95
2023-04-30T01:32:36.802Z,8.38
2023-04-30T01:34:39.072Z,7.80
2023-04-30T01:36:44.269Z,7.22
2023-04-30T01:38:55.354Z,10.20
2023-04-30T01:40:59.743Z,10.30
2023-04-30T01:43:04.669Z,17.88
2023-04-30T01:45:06.789Z,9.65
2023-04-30T01:47:12.964Z,7.03
2023-04-30T01:49:21.064Z,7.15
2023-04-30T01:51:29.519Z,9.05
2023-04-30T01:53:33.839Z,6.05
2023-04-30T01:55:36.083Z,7.38
2023-04-30T01:57:39.625Z,8.00
2023-04-30T01:59:42.102Z,8.13
2023-04-30T02:01:44.805Z,6.78
2023-04-30T02:05:49.493Z,8.15
2023-04-30T02:07:52.225Z,7.93
2023-04-30T02:11:57.934Z,8.38
2023-04-30T02:16:02.201Z,9.63
2023-04-30T02:18:04.519Z,8.88
2023-04-30T02:20:07.251Z,7.28
2023-04-30T02:22:09.904Z,8.50
2023-04-30T02:26:14.216Z,6.55
2023-04-30T02:28:16.364Z,7.35
2023-04-30T02:30:20.125Z,7.90
2023-04-30T02:32:22.395Z,8.40
2023-04-30T02:34:24.532Z,9.80
2023-04-30T02:36:27.186Z,7.88
2023-04-30T02:40:31.358Z,7.10
2023-04-30T02:42:33.519Z,8.20
2023-04-30T02:44:35.825Z,7.95
2023-04-30T02:46:37.941Z,8.95
2023-04-30T02:48:40.144Z,7.43
2023-04-30T02:50:42.253Z,7.93
2023-04-30T02:52:45.555Z,11.05
2023-04-30T02:54:47.702Z,8.75
2023-04-30T02:56:49.908Z,8.20
2023-04-30T02:58:52.039Z,9.07
2023-04-30T03:00:54.230Z,9.32
2023-04-30T03:02:56.681Z,10.30
2023-04-30T03:04:58.942Z,8.98
2023-04-30T03:07:01.145Z,8.52
2023-04-30T03:09:03.674Z,9.85
2023-04-30T03:11:05.969Z,9.60
2023-04-30T03:13:08.094Z,9.32
2023-04-30T03:15:10.720Z,8.70
2023-04-30T03:19:14.987Z,8.85
2023-04-30T03:21:17.186Z,10.05
2023-04-30T03:23:19.454Z,9.82
2023-04-30T03:25:21.636Z,10.18
2023-04-30T03:27:23.793Z,8.73
2023-04-30T03:29:26.728Z,9.85
2023-04-30T03:31:28.963Z,10.10
2023-04-30T03:33:31.640Z,9.60
2023-04-30T03:35:34.094Z,9.20
2023-04-30T03:37:36.316Z,9.43
2023-04-30T03:39:38.533Z,10.73
2023-04-30T03:41:40.729Z,12.90
2023-04-30T03:43:42.838Z,10.48
2023-04-30T03:45:45.154Z,9.85
2023-04-30T03:47:47.486Z,10.80
2023-04-30T03:49:55.078Z,11.98
2023-04-30T03:51:57.765Z,11.30
2023-04-30T03:53:59.887Z,10.40
2023-04-30T03:56:02.222Z,10.75
2023-04-30T03:58:04.476Z,11.30
2023-04-30T04:00:16.297Z,10.85
2023-04-30T04:02:18.596Z,11.55
2023-04-30T04:04:20.787Z,10.60
2023-04-30T04:06:23.184Z,10.80
2023-04-30T04:08:25.447Z,10.98
2023-04-30T04:10:27.654Z,10.48
2023-04-30T04:12:29.801Z,11.15
2023-04-30T04:14:31.940Z,9.60
2023-04-30T04:16:34.223Z,12.18
2023-04-30T04:18:36.552Z,10.05
2023-04-30T04:20:38.858Z,12.98
2023-04-30T04:22:41.115Z,12.57
2023-04-30T04:24:43.310Z,11.80
2023-04-30T04:26:47.868Z,11.57
2023-04-30T04:28:50.225Z,10.27
2023-04-30T04:30:53.520Z,11.82
2023-04-30T04:32:55.762Z,11.98
2023-04-30T04:34:57.910Z,10.88
2023-04-30T04:37:00.042Z,11.32
2023-04-30T04:39:02.333Z,11.38
2023-04-30T04:41:04.610Z,10.60
2023-04-30T04:43:07.153Z,10.90
2023-04-30T04:45:09.864Z,11.00
2023-04-30T04:49:15.073Z,11.07
2023-04-30T04:51:17.234Z,11.13
2023-04-30T04:53:19.450Z,12.80
2023-04-30T04:55:21.612Z,11.18
2023-04-30T04:57:23.722Z,10.77
2023-04-30T04:59:26.670Z,11.73
2023-04-30T05:01:29.600Z,12.68
2023-04-30T05:03:32.426Z,12.50
2023-04-30T05:05:34.654Z,10.10
2023-04-30T05:07:36.785Z,13.00
2023-04-30T05:09:38.905Z,12.02
2023-04-30T05:11:41.691Z,12.18
2023-04-30T05:13:43.918Z,12.02
2023-04-30T05:15:46.097Z,11.80
2023-04-30T05:17:48.318Z,14.90
2023-04-30T05:19:50.851Z,11.45
2023-04-30T05:21:53.003Z,11.35
2023-04-30T05:23:55.170Z,11.65
2023-04-30T05:25:57.410Z,11.43
2023-04-30T05:27:59.594Z,11.45
2023-04-30T05:30:01.847Z,11.25
2023-04-30T05:32:04.106Z,11.02
2023-04-30T05:34:06.363Z,11.43
2023-04-30T05:36:08.581Z,11.02
2023-04-30T05:38:10.759Z,10.95
2023-04-30T05:40:13.463Z,11.30
2023-04-30T05:44:17.690Z,10.60
2023-04-30T05:46:19.972Z,12.43
2023-04-30T05:48:22.228Z,10.20
2023-04-30T05:50:24.409Z,11.23
2023-04-30T05:52:26.574Z,10.93
2023-04-30T05:54:28.697Z,11.75
2023-04-30T05:56:30.861Z,12.13
2023-04-30T05:58:33.044Z,12.75
2023-04-30T06:00:36.012Z,12.88
2023-04-30T06:02:38.380Z,10.55
2023-04-30T06:04:40.925Z,10.80
2023-04-30T06:06:43.181Z,10.05
2023-04-30T06:08:45.771Z,11.30
2023-04-30T06:10:47.959Z,10.32
2023-04-30T06:12:50.151Z,12.57
2023-04-30T06:14:52.774Z,10.98
2023-04-30T06:16:55.148Z,9.73
2023-04-30T06:18:57.385Z,9.68
2023-04-30T06:20:59.549Z,11.93
2023-04-30T06:23:03.785Z,9.63
2023-04-30T06:25:06.190Z,11.27
2023-04-30T06:27:08.339Z,11.13
2023-04-30T06:29:10.536Z,9.43
2023-04-30T06:31:12.802Z,10.05
2023-04-30T06:33:14.969Z,8.93
2023-04-30T06:35:17.182Z,9.52
2023-04-30T06:37:19.313Z,9.13
2023-04-30T06:39:21.450Z,9.15
2023-04-30T06:41:23.635Z,8.73
2023-04-30T06:43:25.769Z,7.95
2023-04-30T06:45:28.830Z,8.95
2023-04-30T06:47:42.709Z,7.55
2023-04-30T06:49:45.036Z,7.90
2023-04-30T06:51:47.300Z,7.25
2023-04-30T06:53:49.441Z,7.18
2023-04-30T06:55:52.162Z,7.20
2023-04-30T06:59:57.077Z,6.82
2023-04-30T07:04:02.257Z,8.35
2023-04-30T07:06:04.577Z,7.90
2023-04-30T07:08:07.491Z,6.72
2023-04-30T07:10:09.656Z,7.70
2023-04-30T07:12:13.666Z,7.65
2023-04-30T07:14:15.873Z,6.40
2023-04-30T07:16:18.103Z,7.15
2023-04-30T07:18:20.524Z,6.63
2023-04-30T07:20:22.675Z,6.88
2023-04-30T07:22:24.829Z,6.57
2023-04-30T07:24:27.207Z,6.43
2023-04-30T07:26:29.351Z,7.72
2023-04-30T07:28:31.530Z,5.90
2023-04-30T07:30:33.807Z,6.82
2023-04-30T07:32:36.325Z,6.47
2023-04-30T07:34:38.565Z,7.63
2023-04-30T07:36:40.738Z,6.82
2023-04-30T07:38:43.001Z,6.63
2023-04-30T07:40:45.462Z,6.25
2023-04-30T07:42:47.701Z,6.50
2023-04-30T07:44:49.890Z,7.53
2023-04-30T07:46:52.047Z,6.90
2023-04-30T07:48:54.260Z,6.00
2023-04-30T07:50:56.832Z,6.88
2023-04-30T07:52:58.980Z,7.20
2023-04-30T07:55:01.194Z,5.85
2023-04-30T07:57:03.761Z,6.93
2023-04-30T07:59:06.066Z,8.10
2023-04-30T08:01:08.230Z,5.85
2023-04-30T08:03:10.469Z,5.78
2023-04-30T08:05:12.626Z,5.53
2023-04-30T08:07:16.005Z,6.25
2023-04-30T08:09:18.200Z,5.68
2023-04-30T08:11:20.395Z,6.13
2023-04-30T08:13:22.549Z,6.10
2023-04-30T08:15:24.806Z,6.38
2023-04-30T08:17:27.011Z,5.57
2023-04-30T08:19:29.254Z,5.20
2023-04-30T08:21:31.504Z,6.03
2023-04-30T08:23:33.676Z,10.20
2023-04-30T08:25:36.975Z,7.05
2023-04-30T08:27:39.452Z,7.75
2023-04-30T08:29:41.592Z,5.32
2023-04-30T08:31:43.835Z,6.45
2023-04-30T08:33:46.044Z,8.20
2023-04-30T08:35:48.229Z,7.20
2023-04-30T08:37:50.490Z,6.97
2023-04-30T08:39:53.091Z,6.30
2023-04-30T08:41:56.256Z,6.25
2023-04-30T08:44:01.920Z,6.82
2023-04-30T08:46:05.127Z,6.63
2023-04-30T08:48:10.726Z,6.60
2023-04-30T08:50:13.071Z,6.55
2023-04-30T08:52:15.596Z,6.75
2023-04-30T08:54:18.512Z,6.88
2023-04-30T08:56:22.541Z,6.55
2023-04-30T08:58:25.787Z,6.38
2023-04-30T09:00:28.149Z,6.35
2023-04-30T09:02:32.983Z,5.88
2023-04-30T09:04:35.303Z,7.03
2023-04-30T09:06:37.507Z,5.90
2023-04-30T09:08:42.613Z,7.20
2023-04-30T09:10:45.072Z,6.55
2023-04-30T09:13:07.547Z,6.30
2023-04-30T09:15:10.847Z,5.90
2023-04-30T09:17:22.046Z,5.13
2023-04-30T09:19:28.443Z,6.03
2023-04-30T09:21:33.148Z,5.25
2023-04-30T09:23:35.356Z,6.57
2023-04-30T09:25:41.696Z,4.75
2023-04-30T09:27:44.318Z,5.47
2023-04-30T09:29:46.672Z,7.38
2023-04-30T09:31:48.945Z,5.40
2023-04-30T09:33:51.391Z,4.68
2023-04-30T09:35:53.572Z,5.57
2023-04-30T09:37:55.821Z,5.88
2023-04-30T09:39:58.001Z,4.95
2023-04-30T09:42:10.401Z,5.55
2023-04-30T09:44:28.621Z,5.50
2023-04-30T09:46:32.167Z,5.35
2023-04-30T09:48:34.439Z,5.78
2023-04-30T09:50:41.908Z,5.47
2023-04-30T09:52:54.676Z,5.30
2023-04-30T09:54:56.805Z,4.68
2023-04-30T09:57:00.139Z,5.57
2023-04-30T09:59:04.452Z,5.57
2023-04-30T10:01:07.235Z,5.38
2023-04-30T10:05:12.208Z,5.30
2023-04-30T10:09:18.382Z,4.70
2023-04-30T10:11:21.865Z,5.10
2023-04-30T10:13:26.829Z,4.95
2023-04-30T10:15:35.258Z,6.93
2023-04-30T10:17:41.430Z,4.35
2023-04-30T10:19:47.838Z,4.75
2023-04-30T10:21:51.122Z,4.72
2023-04-30T10:23:53.737Z,5.47
2023-04-30T10:25:57.499Z,6.18
2023-04-30T10:28:00.613Z,5.22
2023-04-30T10:30:03.731Z,6.15
2023-04-30T10:32:06.366Z,5.35
2023-04-30T10:34:09.106Z,5.32
2023-04-30T10:36:14.043Z,6.00
2023-04-30T10:38:19.290Z,5.93
2023-04-30T10:40:21.447Z,5.82
2023-04-30T10:42:23.688Z,6.13
2023-04-30T10:44:26.913Z,6.65
2023-04-30T10:46:29.353Z,6.30
2023-04-30T10:48:34.962Z,6.82
2023-04-30T10:50:46.027Z,6.60
2023-04-30T10:52:48.527Z,6.55
2023-04-30T10:54:51.834Z,6.78
2023-04-30T10:56:56.305Z,6.53
2023-04-30T10:59:02.418Z,5.82
2023-04-30T11:01:05.797Z,6.13
2023-04-30T11:03:08.563Z,5.97
2023-04-30T11:05:14.835Z,5.05
2023-04-30T11:07:17.170Z,9.68
2023-04-30T11:09:19.687Z,5.30
2023-04-30T11:11:22.011Z,4.70
2023-04-30T11:13:24.762Z,4.30
2023-04-30T11:17:29.868Z,4.05
2023-04-30T11:19:34.692Z,4.15
2023-04-30T11:21:41.140Z,3.80
2023-04-30T11:23:44.161Z,4.28
2023-04-30T11:25:47.244Z,5.40
2023-04-30T11:27:50.154Z,3.85
2023-04-30T11:29:52.960Z,3.78
2023-04-30T11:31:57.126Z,3.85
2023-04-30T11:34:00.738Z,3.95
2023-04-30T11:36:03.216Z,4.70
2023-04-30T11:38:06.099Z,3.58
2023-04-30T11:40:11.047Z,4.55
2023-04-30T11:42:17.392Z,3.85
2023-04-30T11:44:23.962Z,3.92
2023-04-30T11:46:26.183Z,5.07
2023-04-30T11:48:34.171Z,3.97
2023-04-30T11:50:43.250Z,4.18
2023-04-30T11:52:52.751Z,3.83
2023-04-30T11:54:57.795Z,3.60
2023-04-30T11:57:04.124Z,4.82
2023-04-30T11:59:13.716Z,4.15
2023-04-30T12:01:16.352Z,3.92
2023-04-30T12:03:18.814Z,4.13
2023-04-30T12:05:21.874Z,3.92
2023-04-30T12:07:24.146Z,3.67
2023-04-30T12:09:26.288Z,3.72
2023-04-30T12:11:32.452Z,3.55
2023-04-30T12:13:34.865Z,3.78
2023-04-30T12:15:39.169Z,3.78
2023-04-30T12:17:41.531Z,4.00
2023-04-30T12:19:43.726Z,4.03
2023-04-30T12:21:46.662Z,3.53
2023-04-30T12:23:48.831Z,3.58
2023-04-30T12:25:51.102Z,6.78
2023-04-30T12:27:53.880Z,4.18
2023-04-30T12:32:00.009Z,3.40
2023-04-30T12:34:06.131Z,3.60
2023-04-30T12:36:11.429Z,3.08
2023-04-30T12:38:17.696Z,3.72
2023-04-30T12:40:20.781Z,4.20
2023-04-30T12:42:22.944Z,3.88
2023-04-30T12:44:26.025Z,4.07
2023-04-30T12:46:29.656Z,4.03
2023-04-30T12:48:43.664Z,3.60
2023-04-30T12:50:49.307Z,3.67
2023-04-30T12:52:51.442Z,3.38
2023-04-30T12:54:54.953Z,3.00
2023-04-30T12:56:58.304Z,5.50
2023-04-30T12:59:00.563Z,3.35
2023-04-30T13:01:02.819Z,3.83
2023-04-30T13:03:05.248Z,3.30
2023-04-30T13:05:09.804Z,3.60
2023-04-30T13:07:13.746Z,3.28
2023-04-30T13:09:16.098Z,3.70
2023-04-30T13:11:18.222Z,4.03
2023-04-30T13:13:21.229Z,3.97
2023-04-30T13:15:23.391Z,3.92
2023-04-30T13:17:26.445Z,3.13
2023-04-30T13:19:29.369Z,4.25
2023-04-30T13:25:46.977Z,3.83
2023-04-30T13:27:49.187Z,2.90
2023-04-30T13:29:51.357Z,3.95
2023-04-30T13:31:53.655Z,2.83
2023-04-30T13:33:56.098Z,3.58
2023-04-30T13:35:58.245Z,3.30
2023-04-30T13:38:00.684Z,2.97
2023-04-30T13:40:03.963Z,3.50
2023-04-30T13:42:06.198Z,4.63
2023-04-30T13:44:08.571Z,3.15
2023-04-30T13:46:10.797Z,3.03
2023-04-30T13:48:12.975Z,3.25
2023-04-30T13:50:15.328Z,2.78
2023-04-30T13:52:17.540Z,2.83
2023-04-30T13:54:19.749Z,3.25
2023-04-30T13:56:22.020Z,3.33
2023-04-30T13:58:24.153Z,3.20
2023-04-30T14:00:26.634Z,4.85
2023-04-30T14:02:29.041Z,2.88
2023-04-30T14:04:31.616Z,2.90
2023-04-30T14:06:33.851Z,3.35
2023-04-30T14:08:36.075Z,2.97
2023-04-30T14:10:38.222Z,3.95
2023-04-30T14:12:40.355Z,3.00
2023-04-30T14:14:42.545Z,3.03
2023-04-30T14:16:45.214Z,3.53
2023-04-30T14:20:49.952Z,2.90
2023-04-30T14:22:52.120Z,3.13
2023-04-30T14:24:54.486Z,3.90
2023-04-30T14:26:56.847Z,2.70
2023-04-30T14:28:59.046Z,2.92
2023-04-30T14:31:01.336Z,2.75
2023-04-30T14:33:03.580Z,2.53
2023-04-30T14:35:06.093Z,3.03
2023-04-30T14:37:08.303Z,4.28
2023-04-30T14:39:10.417Z,3.15
2023-04-30T14:41:13.194Z,2.40
2023-04-30T14:45:17.426Z,2.58
2023-04-30T14:47:21.597Z,2.90
2023-04-30T14:49:23.762Z,3.40
2023-04-30T14:51:25.909Z,3.10
2023-04-30T14:53:28.261Z,3.35
2023-04-30T14:55:30.510Z,4.75
2023-04-30T14:57:34.364Z,4.25
2023-04-30T14:59:38.802Z,3.13
2023-04-30T15:01:41.200Z,4.03
2023-04-30T15:03:44.016Z,3.15
2023-04-30T15:05:46.822Z,5.90
2023-04-30T15:09:52.520Z,4.10
2023-04-30T15:11:54.851Z,3.13
2023-04-30T15:13:57.080Z,3.53
2023-04-30T15:15:59.587Z,3.92
2023-04-30T15:18:03.987Z,4.43
2023-04-30T15:20:09.240Z,3.28
2023-04-30T15:22:11.477Z,3.70
2023-04-30T15:24:14.028Z,5.20
2023-04-30T15:26:16.275Z,5.90
2023-04-30T15:28:18.569Z,3.60
2023-04-30T15:30:22.081Z,3.78
2023-04-30T15:32:24.226Z,3.33
2023-04-30T15:34:26.548Z,2.85
2023-04-30T15:36:28.767Z,3.78
2023-04-30T15:38:31.616Z,4.03
2023-04-30T15:40:33.853Z,3.67
2023-04-30T15:42:37.376Z,3.10
2023-04-30T15:44:39.556Z,3.22
2023-04-30T15:46:42.298Z,3.40
2023-04-30T15:50:46.515Z,4.30
2023-04-30T15:52:48.642Z,4.95
2023-04-30T15:54:51.236Z,3.55
2023-04-30T15:56:53.604Z,3.15
2023-04-30T15:58:56.018Z,4.28
2023-04-30T16:00:58.149Z,3.50
2023-04-30T16:03:00.931Z,3.80
2023-04-30T16:07:05.489Z,3.70
2023-04-30T16:09:08.875Z,3.80
2023-04-30T16:11:11.696Z,4.53
2023-04-30T16:15:16.303Z,4.80
2023-04-30T16:17:18.720Z,4.15
2023-04-30T16:19:20.974Z,3.88
2023-04-30T16:21:23.856Z,3.70
2023-04-30T16:23:26.431Z,3.28
2023-04-30T16:25:28.710Z,3.65
2023-04-30T16:27:31.154Z,3.60
2023-04-30T16:29:33.261Z,3.35
2023-04-30T16:31:35.736Z,4.70
2023-04-30T16:33:38.061Z,3.20
2023-04-30T16:35:40.316Z,3.45
2023-04-30T16:37:42.546Z,4.38
2023-04-30T16:39:44.674Z,3.45
2023-04-30T16:41:46.885Z,3.28
2023-04-30T16:43:49.035Z,3.30
2023-04-30T16:45:51.545Z,3.25
2023-04-30T16:47:53.812Z,3.03
2023-04-30T16:49:56.349Z,3.80
2023-04-30T16:54:01.082Z,7.10
2023-04-30T16:56:03.394Z,4.25
2023-04-30T16:58:05.865Z,4.03
2023-04-30T17:00:08.623Z,4.55
2023-04-30T17:04:13.290Z,4.03
2023-04-30T17:06:15.587Z,3.60
2023-04-30T17:08:17.907Z,3.35
2023-04-30T17:10:21.577Z,3.70
2023-04-30T17:12:23.844Z,3.33
2023-04-30T17:14:26.814Z,3.25
2023-04-30T17:16:29.124Z,3.58
2023-04-30T17:18:31.556Z,3.40
2023-04-30T17:20:33.798Z,3.78
2023-04-30T17:22:35.991Z,6.55
2023-04-30T17:24:38.137Z,3.58
2023-04-30T17:26:40.348Z,5.55
2023-04-30T17:28:42.565Z,4.35
2023-04-30T17:30:45.181Z,3.10
2023-04-30T17:32:47.722Z,3.15
2023-04-30T17:34:49.923Z,5.75
2023-04-30T17:36:52.079Z,4.00
2023-04-30T17:38:54.522Z,3.83
2023-04-30T17:40:57.595Z,3.83
2023-04-30T17:42:59.758Z,3.60
2023-04-30T17:45:02.201Z,5.30
2023-04-30T17:47:05.584Z,3.20
2023-04-30T17:49:08.192Z,4.25
2023-04-30T17:51:10.453Z,3.50
2023-04-30T17:53:12.927Z,3.63
2023-04-30T17:55:18.312Z,5.63
2023-04-30T17:57:20.589Z,3.65
2023-04-30T17:59:22.812Z,3.85
2023-04-30T18:01:25.961Z,4.40
2023-04-30T18:03:28.648Z,4.10
2023-04-30T18:05:32.069Z,4.40
2023-04-30T18:07:35.615Z,3.50
2023-04-30T18:09:37.808Z,3.70
2023-04-30T18:11:39.949Z,4.00
2023-04-30T18:13:43.053Z,3.58
2023-04-30T18:15:45.333Z,4.40
2023-04-30T18:17:47.565Z,4.22
2023-04-30T18:19:49.901Z,4.65
2023-04-30T18:21:53.133Z,5.95
2023-04-30T18:23:55.837Z,4.35
2023-04-30T18:25:58.368Z,4.72
2023-04-30T18:28:01.401Z,4.63
2023-04-30T18:30:04.189Z,5.00
2023-04-30T18:34:08.639Z,5.57
2023-04-30T18:36:11.157Z,4.82
2023-04-30T18:38:13.286Z,5.40
2023-04-30T18:40:16.628Z,4.57
2023-04-30T18:42:18.780Z,4.97
2023-04-30T18:44:28.937Z,5.03
2023-04-30T18:46:31.271Z,4.95
2023-04-30T18:48:33.408Z,5.40
2023-04-30T18:50:35.728Z,5.05
2023-04-30T18:52:38.013Z,5.25
2023-04-30T18:54:42.337Z,5.35
2023-04-30T18:56:45.258Z,5.93
2023-04-30T18:58:47.702Z,5.32
2023-04-30T19:00:49.886Z,9.98
2023-04-30T19:02:52.468Z,5.47
2023-04-30T19:04:55.110Z,5.05
2023-04-30T19:06:57.324Z,5.22
2023-04-30T19:09:00.016Z,5.45
2023-04-30T19:11:02.270Z,6.35
2023-04-30T19:13:04.513Z,6.18
2023-04-30T19:15:08.265Z,4.57
2023-04-30T19:17:10.893Z,5.78
2023-04-30T19:19:13.886Z,6.43
2023-04-30T19:21:16.373Z,5.68
2023-04-30T19:23:18.517Z,6.35
2023-04-30T19:25:20.741Z,5.70
2023-04-30T19:27:22.857Z,6.07
2023-04-30T19:29:25.000Z,5.28
2023-04-30T19:31:27.367Z,7.57
2023-04-30T19:33:30.952Z,6.05
2023-04-30T19:35:34.905Z,6.72
2023-04-30T19:37:37.366Z,6.03
2023-04-30T19:39:40.265Z,7.00
2023-04-30T19:41:42.551Z,5.70
2023-04-30T19:43:44.702Z,5.07
2023-04-30T19:45:53.791Z,5.55
2023-04-30T19:47:56.175Z,8.90
2023-04-30T19:49:58.505Z,6.55
2023-04-30T19:52:01.446Z,5.97
2023-04-30T19:54:03.777Z,6.03
2023-04-30T19:56:05.933Z,5.57
2023-04-30T19:58:08.186Z,6.15
2023-04-30T20:00:12.937Z,7.63
2023-04-30T20:02:15.666Z,6.90
2023-04-30T20:06:21.141Z,9.68
2023-04-30T20:08:23.703Z,8.38
2023-04-30T20:10:26.120Z,10.55
2023-04-30T20:12:28.290Z,7.68
2023-04-30T20:14:30.967Z,10.15
2023-04-30T20:16:33.172Z,10.88
2023-04-30T20:18:35.438Z,9.82
2023-04-30T20:20:37.595Z,9.38
2023-04-30T20:22:39.888Z,9.95
2023-04-30T20:24:45.435Z,11.20
2023-04-30T20:26:47.598Z,12.23
2023-04-30T20:28:49.794Z,13.73
2023-04-30T20:30:51.990Z,13.73
2023-04-30T20:32:54.173Z,11.55
2023-04-30T20:34:56.753Z,10.93
2023-04-30T20:36:59.673Z,12.20
2023-04-30T20:39:01.851Z,13.40
2023-04-30T20:41:04.014Z,11.00
2023-04-30T20:43:06.741Z,11.05
2023-04-30T20:47:14.266Z,9.52
2023-04-30T20:49:17.106Z,10.05
2023-04-30T20:53:21.322Z,9.55
2023-04-30T20:55:23.544Z,10.02
2023-04-30T20:57:26.132Z,8.23
2023-04-30T20:59:28.321Z,8.48
2023-04-30T21:01:30.771Z,7.85
2023-04-30T21:03:32.973Z,7.65
2023-04-30T21:05:35.165Z,7.03
2023-04-30T21:07:37.446Z,7.05
2023-04-30T21:09:39.861Z,6.28
2023-04-30T21:11:42.516Z,8.63
2023-04-30T21:13:45.068Z,7.95
2023-04-30T21:15:48.725Z,7.53
2023-04-30T21:17:51.180Z,6.68
2023-04-30T21:19:53.599Z,7.93
2023-04-30T21:21:55.815Z,8.60
2023-04-30T21:24:01.253Z,6.82
2023-04-30T21:26:03.776Z,7.22
2023-04-30T21:28:05.962Z,5.82
2023-04-30T21:30:08.430Z,9.00
2023-04-30T21:32:10.681Z,7.68
2023-04-30T21:34:13.016Z,6.78
2023-04-30T21:36:16.528Z,6.70
2023-04-30T21:38:18.806Z,5.47
2023-04-30T21:40:21.299Z,6.57
2023-04-30T21:42:23.494Z,6.68
2023-04-30T21:44:25.747Z,6.22
2023-04-30T21:46:28.046Z,6.60
2023-04-30T21:48:30.415Z,6.38
2023-04-30T21:50:35.756Z,6.05
2023-04-30T21:52:38.018Z,5.75
2023-04-30T21:54:40.212Z,7.03
2023-04-30T21:56:42.395Z,11.52
2023-04-30T21:58:44.573Z,5.47
2023-04-30T22:00:46.760Z,7.82
2023-04-30T22:02:49.322Z,6.50
2023-04-30T22:04:51.638Z,7.85
2023-04-30T22:06:54.347Z,8.13
2023-04-30T22:08:56.603Z,6.35
2023-04-30T22:10:59.857Z,8.27
2023-04-30T22:13:02.137Z,6.30
2023-04-30T22:15:04.768Z,7.32
2023-04-30T22:17:07.007Z,6.88
2023-04-30T22:19:09.144Z,5.90
2023-04-30T22:21:11.361Z,6.97
2023-04-30T22:23:13.550Z,6.43
2023-04-30T22:25:17.602Z,6.45
2023-04-30T22:27:19.777Z,5.95
2023-04-30T22:29:21.916Z,5.72
2023-04-30T22:31:24.261Z,5.43
2023-04-30T22:33:26.484Z,5.65
2023-04-30T22:35:28.972Z,5.32
2023-04-30T22:37:31.455Z,5.72
2023-04-30T22:39:33.681Z,7.22
2023-04-30T22:41:35.888Z,5.47
2023-04-30T22:43:38.193Z,5.65
2023-04-30T22:45:40.614Z,5.05
2023-04-30T22:47:42.947Z,5.85
2023-04-30T22:49:45.228Z,5.60
2023-04-30T22:51:48.948Z,7.35
2023-04-30T22:53:51.222Z,8.43
2023-04-30T22:55:54.829Z,6.72
2023-04-30T22:57:59.706Z,7.70
2023-04-30T23:00:01.956Z,5.97
2023-04-30T23:02:04.173Z,5.25
2023-04-30T23:04:06.376Z,7.60
2023-04-30T23:06:08.547Z,6.10
2023-04-30T23:08:10.756Z,6.72
2023-04-30T23:10:12.916Z,5.40
2023-04-30T23:12:15.119Z,5.95
2023-04-30T23:14:17.557Z,5.68
2023-04-30T23:16:21.829Z,6.25
2023-04-30T23:18:24.188Z,5.88
2023-04-30T23:20:26.461Z,7.03
2023-04-30T23:22:28.689Z,6.03
2023-04-30T23:24:35.213Z,6.45
2023-04-30T23:26:37.420Z,5.90
2023-04-30T23:28:39.649Z,5.45
2023-04-30T23:30:41.987Z,7.38
2023-04-30T23:32:44.328Z,5.68
2023-04-30T23:34:47.611Z,6.25
2023-04-30T23:36:49.791Z,5.47
2023-04-30T23:38:52.136Z,6.60
2023-04-30T23:40:56.504Z,5.55
2023-04-30T23:42:58.677Z,7.50
2023-04-30T23:45:01.315Z,5.75
2023-04-30T23:49:05.778Z,5.88
2023-04-30T23:51:08.889Z,5.85
2023-04-30T23:53:11.222Z,5.97
2023-04-30T23:55:13.723Z,6.70
2023-04-30T23:57:15.904Z,7.03
2023-04-30T23:59:18.037Z,6.47
